createdAt,value
2018-02-27T00:04:20.782Z,91.50
2018-02-27T00:09:04.137Z,91.50
2018-02-27T00:13:47.868Z,91.70
2018-02-27T00:18:32.152Z,91.90
2018-02-27T00:23:15.849Z,91.80
2018-02-27T00:27:59.405Z,92.00
2018-02-27T00:32:43.167Z,92.10
2018-02-27T00:37:27.546Z,92.10
2018-02-27T00:42:12.280Z,92.30
2018-02-27T00:46:55.877Z,92.30
2018-02-27T00:51:39.542Z,92.40
2018-02-27T00:56:24.129Z,92.40
2018-02-27T01:01:07.746Z,92.30
2018-02-27T01:05:51.167Z,91.90
2018-02-27T01:10:34.569Z,92.20
2018-02-27T01:15:18.060Z,92.10
2018-02-27T01:20:01.594Z,92.00
2018-02-27T01:24:46.072Z,92.10
2018-02-27T01:29:31.558Z,92.20
2018-02-27T01:34:15.219Z,92.20
2018-02-27T01:38:59.029Z,92.50
2018-02-27T01:43:43.033Z,92.70
2018-02-27T01:48:26.897Z,92.80
2018-02-27T01:53:10.547Z,93.00
2018-02-27T01:57:54.624Z,93.30
2018-02-27T02:02:39.902Z,93.20
2018-02-27T02:07:23.562Z,93.30
2018-02-27T02:12:08.216Z,93.00
2018-02-27T02:16:51.877Z,93.00
2018-02-27T02:27:14.796Z,93.20
2018-02-27T02:31:58.377Z,93.10
2018-02-27T02:36:41.839Z,93.20
2018-02-27T02:46:38.138Z,93.20
2018-02-27T02:51:21.495Z,93.20
2018-02-27T02:56:05.150Z,93.20
2018-02-27T03:00:48.625Z,93.40
2018-02-27T03:05:32.156Z,93.60
2018-02-27T03:15:27.292Z,93.70
2018-02-27T03:20:10.955Z,93.50
2018-02-27T03:24:55.065Z,93.60
2018-02-27T03:29:38.445Z,93.60
2018-02-27T03:39:36.048Z,94.40
2018-02-27T03:44:19.480Z,94.30
2018-02-27T03:49:18.369Z,94.30
2018-02-27T03:54:01.779Z,94.20
2018-02-27T03:58:47.364Z,94.30
2018-02-27T04:03:31.531Z,94.60
2018-02-27T04:08:15.361Z,94.80
2018-02-27T04:12:58.757Z,94.80
2018-02-27T04:17:42.916Z,94.50
2018-02-27T04:22:26.395Z,94.40
2018-02-27T04:27:09.743Z,94.40
2018-02-27T04:31:53.451Z,94.30
2018-02-27T04:36:36.976Z,94.40
2018-02-27T04:41:20.580Z,94.60
2018-02-27T04:46:04.240Z,94.40
2018-02-27T04:50:47.973Z,94.50
2018-02-27T04:55:32.075Z,94.70
2018-02-27T05:00:15.423Z,94.70
2018-02-27T05:04:59.311Z,94.60
2018-02-27T05:09:43.734Z,94.80
2018-02-27T05:14:27.151Z,94.80
2018-02-27T05:24:35.951Z,94.70
2018-02-27T05:29:20.100Z,94.80
2018-02-27T05:34:03.410Z,94.70
2018-02-27T05:38:46.852Z,94.80
2018-02-27T05:43:30.236Z,94.80
2018-02-27T05:48:14.497Z,94.80
2018-02-27T05:52:58.696Z,94.70
2018-02-27T05:57:42.006Z,94.70
2018-02-27T06:02:26.137Z,94.80
2018-02-27T06:07:09.470Z,94.80
2018-02-27T06:11:52.893Z,94.80
2018-02-27T06:16:36.290Z,94.80
2018-02-27T06:21:20.408Z,94.80
2018-02-27T06:26:03.832Z,94.70
2018-02-27T06:30:47.222Z,94.80
2018-02-27T06:35:30.589Z,94.80
2018-02-27T06:40:13.938Z,94.70
2018-02-27T06:44:57.231Z,94.60
2018-02-27T06:49:41.456Z,94.40
2018-02-27T06:54:24.907Z,94.40
2018-02-27T06:59:08.448Z,94.30
2018-02-27T07:03:51.809Z,94.00
2018-02-27T07:08:35.143Z,93.80
2018-02-27T07:13:18.575Z,93.60
2018-02-27T07:18:01.937Z,93.30
2018-02-27T07:22:45.343Z,93.50
2018-02-27T07:27:28.747Z,93.30
2018-02-27T07:32:12.923Z,92.80
2018-02-27T07:36:56.394Z,92.70
2018-02-27T07:41:39.763Z,92.60
2018-02-27T07:46:24.039Z,91.80
2018-02-27T07:51:07.462Z,91.80
2018-02-27T07:55:50.833Z,91.50
2018-02-27T08:00:34.294Z,91.10
2018-02-27T08:05:18.584Z,90.60
2018-02-27T08:10:01.970Z,88.70
2018-02-27T08:14:45.352Z,88.10
2018-02-27T08:19:28.719Z,87.50
2018-02-27T08:24:13.727Z,85.80
2018-02-27T08:29:20.427Z,82.20
2018-02-27T08:34:04.047Z,82.10
2018-02-27T08:38:47.424Z,81.80
2018-02-27T08:43:30.763Z,81.90
2018-02-27T08:48:14.109Z,81.00
2018-02-27T08:52:57.436Z,78.00
2018-02-27T08:57:40.804Z,76.10
2018-02-27T09:02:24.139Z,75.10
2018-02-27T09:07:07.480Z,74.70
2018-02-27T09:11:50.854Z,76.40
2018-02-27T09:16:34.220Z,76.20
2018-02-27T09:21:17.810Z,74.30
2018-02-27T09:26:01.151Z,73.20
2018-02-27T09:30:44.503Z,71.10
2018-02-27T09:35:27.844Z,70.90
2018-02-27T09:40:11.213Z,70.30
2018-02-27T09:44:54.562Z,68.70
2018-02-27T09:49:37.885Z,66.70
2018-02-27T09:54:21.262Z,64.70
2018-02-27T09:59:14.963Z,59.30
2018-02-27T10:04:25.946Z,56.90
2018-02-27T10:09:11.463Z,56.40
2018-02-27T10:13:58.452Z,56.20
2018-02-27T10:18:41.826Z,55.80
2018-02-27T10:23:25.199Z,54.40
2018-02-27T10:28:08.539Z,54.40
2018-02-27T10:32:51.871Z,53.20
2018-02-27T10:37:35.219Z,51.90
2018-02-27T10:42:18.618Z,51.10
2018-02-27T10:47:01.934Z,49.50
2018-02-27T10:51:46.041Z,49.00
2018-02-27T10:56:29.412Z,49.00
2018-02-27T11:01:25.230Z,49.50
2018-02-27T11:06:08.645Z,49.30
2018-02-27T11:10:51.977Z,49.80
2018-02-27T11:15:35.382Z,49.40
2018-02-27T11:20:18.753Z,47.40
2018-02-27T11:25:02.065Z,45.20
2018-02-27T11:29:46.205Z,45.90
2018-02-27T11:34:29.700Z,46.10
2018-02-27T11:39:13.032Z,46.60
2018-02-27T11:43:56.392Z,46.10
2018-02-27T11:48:39.748Z,43.90
2018-02-27T11:53:23.103Z,43.80
2018-02-27T11:58:06.616Z,44.90
2018-02-27T12:02:49.999Z,45.60
2018-02-27T12:07:33.383Z,45.10
2018-02-27T12:12:16.755Z,45.30
2018-02-27T12:17:00.141Z,43.10
2018-02-27T12:21:44.264Z,41.40
2018-02-27T12:26:27.685Z,41.40
2018-02-27T12:31:11.078Z,41.40
2018-02-27T12:35:54.498Z,40.60
2018-02-27T12:40:38.647Z,37.80
2018-02-27T12:45:22.084Z,37.70
2018-02-27T12:50:05.564Z,38.60
2018-02-27T12:54:49.031Z,39.60
2018-02-27T12:59:46.775Z,39.10
2018-02-27T13:04:33.208Z,39.10
2018-02-27T13:09:27.062Z,40.10
2018-02-27T13:14:10.443Z,40.00
2018-02-27T13:18:54.567Z,38.50
2018-02-27T13:23:37.946Z,38.40
2018-02-27T13:28:21.306Z,38.00
2018-02-27T13:33:04.659Z,36.50
2018-02-27T13:37:59.139Z,37.80
2018-02-27T13:42:46.294Z,37.30
2018-02-27T13:47:29.624Z,37.30
2018-02-27T13:52:13.059Z,38.50
2018-02-27T13:56:57.141Z,38.60
2018-02-27T14:01:40.493Z,38.50
2018-02-27T14:06:23.883Z,38.30
2018-02-27T14:11:07.247Z,37.30
2018-02-27T14:15:50.573Z,38.10
2018-02-27T14:20:34.685Z,37.80
2018-02-27T14:25:17.991Z,37.70
2018-02-27T14:30:01.337Z,38.30
2018-02-27T14:34:44.648Z,39.20
2018-02-27T14:39:27.987Z,40.90
2018-02-27T14:44:11.391Z,42.30
2018-02-27T14:48:54.756Z,42.60
2018-02-27T14:53:39.063Z,44.90
2018-02-27T14:58:22.539Z,44.90
2018-02-27T15:03:06.927Z,46.10
2018-02-27T15:07:51.130Z,45.40
2018-02-27T15:12:34.783Z,45.40
2018-02-27T15:17:18.182Z,46.00
2018-02-27T15:22:02.382Z,44.90
2018-02-27T15:26:45.824Z,44.90
2018-02-27T15:31:29.174Z,44.50
2018-02-27T15:36:12.664Z,44.90
2018-02-27T15:40:56.972Z,47.60
2018-02-27T15:45:44.639Z,48.30
2018-02-27T15:50:28.016Z,49.30
2018-02-27T15:55:11.440Z,50.60
2018-02-27T15:59:54.812Z,51.10
2018-02-27T16:04:38.169Z,51.40
2018-02-27T16:09:21.556Z,52.60
2018-02-27T16:14:04.984Z,53.80
2018-02-27T16:18:48.374Z,55.00
2018-02-27T16:23:31.766Z,56.00
2018-02-27T16:28:15.171Z,56.30
2018-02-27T16:32:58.588Z,56.90
2018-02-27T16:37:41.961Z,57.90
2018-02-27T16:42:25.527Z,59.10
2018-02-27T16:47:08.983Z,59.30
2018-02-27T16:51:52.414Z,60.00
2018-02-27T16:56:36.636Z,59.90
2018-02-27T17:01:19.971Z,59.90
2018-02-27T17:06:04.117Z,61.40
2018-02-27T17:10:48.245Z,61.90
2018-02-27T17:15:31.933Z,61.90
2018-02-27T17:20:16.052Z,62.60
2018-02-27T17:25:01.821Z,62.60
2018-02-27T17:29:45.281Z,62.50
2018-02-27T17:34:28.650Z,63.00
2018-02-27T17:39:12.163Z,63.70
2018-02-27T17:43:56.059Z,63.80
2018-02-27T17:48:42.865Z,64.50
2018-02-27T17:53:26.596Z,64.40
2018-02-27T17:58:10.031Z,65.00
2018-02-27T18:02:55.348Z,64.10
2018-02-27T18:07:38.880Z,64.10
2018-02-27T18:12:23.108Z,63.70
2018-02-27T18:17:17.650Z,63.70
2018-02-27T18:22:02.367Z,64.30
2018-02-27T18:26:46.665Z,64.90
2018-02-27T18:31:30.088Z,65.50
2018-02-27T18:36:13.650Z,66.30
2018-02-27T18:40:57.162Z,66.90
2018-02-27T18:45:40.714Z,67.10
2018-02-27T18:50:24.240Z,67.40
2018-02-27T18:55:08.026Z,67.40
2018-02-27T18:59:52.560Z,68.50
2018-02-27T19:04:36.860Z,68.70
2018-02-27T19:09:21.393Z,69.20
2018-02-27T19:14:04.983Z,69.20
2018-02-27T19:18:48.415Z,69.40
2018-02-27T19:23:31.920Z,68.30
2018-02-27T19:28:18.898Z,68.00
2018-02-27T19:33:03.143Z,68.30
2018-02-27T19:37:48.687Z,68.30
2018-02-27T19:42:33.771Z,67.60
2018-02-27T19:47:20.377Z,67.10
2018-02-27T19:52:07.777Z,67.30
2018-02-27T19:56:53.501Z,67.30
2018-02-27T20:01:43.969Z,67.10
2018-02-27T20:06:29.378Z,67.00
2018-02-27T20:11:12.931Z,67.80
2018-02-27T20:15:57.196Z,67.90
2018-02-27T20:20:51.630Z,69.00
2018-02-27T20:25:37.516Z,69.00
2018-02-27T20:30:21.154Z,69.00
2018-02-27T20:35:04.569Z,69.60
2018-02-27T20:39:48.518Z,69.10
2018-02-27T20:44:33.497Z,67.70
2018-02-27T20:49:17.081Z,67.80
2018-02-27T20:54:01.440Z,68.80
2018-02-27T20:58:45.264Z,68.70
2018-02-27T21:03:28.902Z,69.50
2018-02-27T21:08:12.779Z,69.40
2018-02-27T21:12:56.998Z,69.70
2018-02-27T21:17:40.653Z,69.70
2018-02-27T21:22:24.349Z,69.80
2018-02-27T21:27:08.192Z,70.10
2018-02-27T21:31:51.640Z,69.90
2018-02-27T21:36:36.386Z,69.70
2018-02-27T21:41:20.152Z,69.60
2018-02-27T21:46:04.606Z,71.60
2018-02-27T21:50:48.290Z,71.60
2018-02-27T21:55:32.421Z,74.10
2018-02-27T22:00:15.862Z,74.10
2018-02-27T22:04:59.456Z,75.30
2018-02-27T22:09:43.015Z,76.10
2018-02-27T22:14:26.651Z,77.10
2018-02-27T22:19:10.123Z,77.90
2018-02-27T22:23:53.510Z,78.60
2018-02-27T22:28:37.098Z,80.00
2018-02-27T22:33:20.774Z,81.20
2018-02-27T22:38:04.188Z,81.90
2018-02-27T22:42:47.789Z,82.80
2018-02-27T22:47:33.538Z,83.20
2018-02-27T22:52:17.101Z,83.20
2018-02-27T22:57:00.775Z,83.70
2018-02-27T23:01:45.639Z,85.90
2018-02-27T23:06:29.179Z,85.80
2018-02-27T23:11:12.751Z,86.20
2018-02-27T23:15:56.446Z,86.20
2018-02-27T23:20:40.337Z,85.10
2018-02-27T23:25:33.775Z,83.90
2018-02-27T23:30:18.576Z,84.10
2018-02-27T23:35:03.667Z,84.60
2018-02-27T23:39:47.293Z,85.00
2018-02-27T23:44:30.985Z,85.70
2018-02-27T23:49:14.509Z,86.00
2018-02-27T23:53:58.851Z,86.70
2018-02-27T23:58:42.406Z,86.70
